Time;durP1;ratioP1;P1;durP2;ratioP2;P2;SDS_P1;SDS_P2;PMS_P1;PMS_P2;Temp;Humidity;BMP_temperature;BMP_pressure;BME280_temperature;BME280_humidity;BME280_pressure;Samples;Min_cycle;Max_cycle;Signal;HPM_P1;HPM_P2
2023/07/06 00:01:48;;;;;;;;;;;;;;;23.63;61.81;100528.00;7396346;19;1540;-46
2023/07/06 00:04:17;;;;;;;;;;;;;;;23.73;61.51;100525.94;7395892;19;1491;-46
2023/07/06 00:06:45;;;;;;;;;;;;;;;23.65;61.64;100519.72;7395854;19;1539;-46
2023/07/06 00:09:14;;;;;;;;;;;;;;;23.49;62.08;100531.41;7399001;19;1857;-46
2023/07/06 00:11:44;;;;;;;;;;;;;;;23.50;62.13;100541.19;7403365;19;1024;-46
2023/07/06 00:14:15;;;;;;;;;;;;;;;23.58;61.91;100533.09;7402176;19;1551;-47
2023/07/06 00:16:51;;;;;;;;;;;;;;;23.43;62.24;100530.22;7402207;19;1310;-46
2023/07/06 00:19:20;;;;;;;;;;;;;;;23.38;62.22;100544.22;7402779;19;1554;-46
2023/07/06 00:21:49;;;;;;;;;;;;;;;23.46;61.88;100535.28;7402755;19;1302;-46
2023/07/06 00:24:17;;;;;;;;;;;;;;;23.58;61.64;100528.53;7402605;19;1273;-46
2023/07/06 00:26:46;;;;;;;;;;;;;;;23.56;61.98;100529.72;7402848;19;1635;-45
2023/07/06 00:29:17;;;;;;;;;;;;;;;23.49;61.92;100528.69;7401891;19;1868;-46
2023/07/06 00:31:51;;;;;;;;;;;;;;;23.58;61.63;100530.38;7402592;19;1105;-46
2023/07/06 00:34:19;;;;;;;;;;;;;;;23.52;61.69;100529.22;7401488;19;1558;-46
2023/07/06 00:36:48;;;;;;;;;;;;;;;23.36;62.13;100529.22;7402272;19;1571;-46
2023/07/06 00:39:17;;;;;;;;;;;;;;;23.34;62.04;100525.88;7402760;19;1298;-46
2023/07/06 00:41:46;;;;;;;;;;;;;;;23.37;61.79;100537.13;7403285;19;1266;-46
2023/07/06 00:44:29;;;;;;;;;;;;;;;23.42;61.81;100528.56;7402336;19;1571;-46
2023/07/06 00:47:00;;;;;;;;;;;;;;;23.50;61.45;100538.50;7401536;19;1258;-46
2023/07/06 00:49:29;;;;;;;;;;;;;;;23.29;62.15;100529.06;7400280;19;1847;-45
2023/07/06 00:52:00;;;;;;;;;;;;;;;23.26;61.90;100536.63;7402013;19;1323;-46
2023/07/06 00:54:29;;;;;;;;;;;;;;;23.26;61.56;100550.13;7400868;19;1677;-46
2023/07/06 00:56:58;;;;;;;;;;;;;;;23.24;61.78;100539.53;7401673;19;1191;-46
2023/07/06 00:59:29;;;;;;;;;;;;;;;23.22;61.71;100544.25;7402007;19;1556;-45
2023/07/06 01:02:01;;;;;;;;;;;;;;;23.36;61.92;100562.44;7401980;19;1278;-46
2023/07/06 01:04:30;;;;;;;;;;;;;;;23.28;62.34;100566.97;7400199;19;1212;-46
2023/07/06 01:06:59;;;;;;;;;;;;;;;23.32;62.19;100582.69;7401282;19;1563;-45
2023/07/06 01:09:29;;;;;;;;;;;;;;;23.63;60.85;100580.16;7400749;19;1866;-46
2023/07/06 01:11:58;;;;;;;;;;;;;;;23.61;61.17;100584.00;7401996;19;1484;-46
2023/07/06 01:14:27;;;;;;;;;;;;;;;23.50;61.49;100582.50;7401447;19;1127;-46
2023/07/06 01:16:59;;;;;;;;;;;;;;;23.71;60.39;100565.75;7400489;19;1563;-46
2023/07/06 01:19:46;;;;;;;;;;;;;;;23.68;60.55;100576.94;7400207;19;1539;-45
2023/07/06 01:22:24;;;;;;;;;;;;;;;23.60;60.60;100577.78;7401121;19;1493;-46
2023/07/06 01:25:02;;;;;;;;;;;;;;;23.48;61.18;100586.41;7398794;19;1215;-46
2023/07/06 01:27:38;;;;;;;;;;;;;;;23.60;60.80;100575.06;7400274;19;1239;-46
2023/07/06 01:30:34;;;;;;;;;;;;;;;23.63;60.77;100573.88;7399832;19;1850;-45
2023/07/06 01:33:06;;;;;;;;;;;;;;;23.61;60.39;100584.84;7397578;19;1606;-46
2023/07/06 01:35:38;;;;;;;;;;;;;;;23.66;60.27;100583.53;7399285;19;1562;-46
2023/07/06 01:38:06;;;;;;;;;;;;;;;23.53;60.06;100589.41;7399692;19;1282;-45
2023/07/06 01:40:35;;;;;;;;;;;;;;;23.50;60.34;100585.22;7400201;19;1288;-47
2023/07/06 01:43:03;;;;;;;;;;;;;;;23.56;59.88;100575.59;7400021;19;1281;-45
2023/07/06 01:45:33;;;;;;;;;;;;;;;23.54;60.14;100583.03;7400163;19;1465;-45
2023/07/06 01:48:03;;;;;;;;;;;;;;;23.55;60.00;100579.28;7400257;19;1591;-46
2023/07/06 01:50:39;;;;;;;;;;;;;;;23.53;60.07;100587.56;7398521;19;1870;-46
2023/07/06 01:53:11;;;;;;;;;;;;;;;23.43;60.32;100581.50;7400303;19;1645;-45
2023/07/06 01:55:43;;;;;;;;;;;;;;;23.52;60.46;100587.75;7400233;19;1175;-46
2023/07/06 01:58:15;;;;;;;;;;;;;;;23.52;60.25;100580.50;7397217;19;1261;-46
2023/07/06 02:00:45;;;;;;;;;;;;;;;23.46;60.53;100572.19;7399479;19;1544;-46
2023/07/06 02:03:14;;;;;;;;;;;;;;;23.60;60.28;100587.75;7400105;19;1464;-46
2023/07/06 02:05:46;;;;;;;;;;;;;;;23.58;60.55;100578.97;7399854;19;1138;-46
2023/07/06 02:08:16;;;;;;;;;;;;;;;23.49;60.80;100582.69;7400466;19;1535;-46
2023/07/06 02:10:44;;;;;;;;;;;;;;;23.33;61.25;100565.47;7399074;19;1857;-46
2023/07/06 02:13:12;;;;;;;;;;;;;;;23.34;61.24;100577.97;7400080;19;1534;-46
2023/07/06 02:15:41;;;;;;;;;;;;;;;23.41;61.22;100589.75;7399198;19;1822;-57
2023/07/06 02:18:09;;;;;;;;;;;;;;;23.46;61.04;100574.91;7399041;19;1262;-46
2023/07/06 02:20:37;;;;;;;;;;;;;;;23.50;61.02;100579.81;7399454;19;1531;-46
2023/07/06 02:23:11;;;;;;;;;;;;;;;23.50;61.04;100574.41;7399176;19;1517;-47
2023/07/06 02:25:39;;;;;;;;;;;;;;;23.38;61.64;100576.63;7398303;19;1198;-46
2023/07/06 02:28:08;;;;;;;;;;;;;;;23.34;61.84;100585.22;7399110;19;1154;-47
2023/07/06 02:30:37;;;;;;;;;;;;;;;23.25;62.13;100575.44;7396723;19;1867;-46
2023/07/06 02:33:06;;;;;;;;;;;;;;;23.35;62.07;100570.69;7396856;19;1317;-50
2023/07/06 02:35:35;;;;;;;;;;;;;;;23.49;61.58;100582.69;7397304;19;1234;-57
2023/07/06 02:38:04;;;;;;;;;;;;;;;23.59;61.36;100586.03;7397711;19;1202;-46
2023/07/06 02:40:35;;;;;;;;;;;;;;;23.69;61.49;100581.28;7397095;19;1279;-46
2023/07/06 02:43:03;;;;;;;;;;;;;;;24.09;60.51;100557.94;7398081;19;1321;-46
2023/07/06 02:45:31;;;;;;;;;;;;;;;24.26;59.99;100561.44;7398235;19;1631;-47
2023/07/06 02:48:00;;;;;;;;;;;;;;;24.37;59.97;100558.34;7397878;19;1344;-47
2023/07/06 02:50:29;;;;;;;;;;;;;;;24.20;60.53;100564.84;7396776;19;1844;-47
2023/07/06 02:52:57;;;;;;;;;;;;;;;24.29;61.38;100552.13;7398378;19;1606;-46
2023/07/06 02:55:26;;;;;;;;;;;;;;;24.17;61.62;100560.63;7398713;19;1183;-47
2023/07/06 02:57:58;;;;;;;;;;;;;;;24.10;61.35;100554.22;7396636;19;1621;-47
2023/07/06 03:00:26;;;;;;;;;;;;;;;24.38;60.37;100570.00;7398556;19;1551;-47
2023/07/06 03:02:54;;;;;;;;;;;;;;;24.32;61.13;100558.03;7397690;19;1553;-47
2023/07/06 03:05:23;;;;;;;;;;;;;;;24.11;61.56;100555.91;7398905;19;1132;-47
2023/07/06 03:07:52;;;;;;;;;;;;;;;24.27;60.54;100560.41;7397535;19;1828;-46
2023/07/06 03:10:22;;;;;;;;;;;;;;;24.17;60.78;100566.03;7396654;19;1861;-47
2023/07/06 03:12:51;;;;;;;;;;;;;;;24.19;61.83;100574.81;7397140;19;1555;-47
2023/07/06 03:15:22;;;;;;;;;;;;;;;24.05;61.39;100561.16;7397119;19;1259;-46
2023/07/06 03:17:51;;;;;;;;;;;;;;;24.29;61.22;100565.63;7397216;19;1102;-47
2023/07/06 03:20:22;;;;;;;;;;;;;;;24.36;61.52;100558.50;7396759;19;1461;-47
2023/07/06 03:22:51;;;;;;;;;;;;;;;24.41;61.38;100558.81;7398564;19;1041;-46
2023/07/06 03:25:20;;;;;;;;;;;;;;;24.36;61.44;100569.31;7397268;19;1936;-47
2023/07/06 03:27:49;;;;;;;;;;;;;;;24.41;61.28;100584.00;7396888;19;1316;-46
2023/07/06 03:30:18;;;;;;;;;;;;;;;23.91;61.19;100485.25;7395781;19;1873;-47
2023/07/06 03:32:49;;;;;;;;;;;;;;;24.07;62.28;100586.97;7397613;19;1285;-46
2023/07/06 03:35:22;;;;;;;;;;;;;;;23.88;62.65;100587.38;7396479;19;1292;-46
2023/07/06 03:37:50;;;;;;;;;;;;;;;23.80;62.69;100590.94;7396314;19;1270;-46
2023/07/06 03:40:20;;;;;;;;;;;;;;;23.82;63.01;100589.75;7395640;19;1281;-45
2023/07/06 03:42:48;;;;;;;;;;;;;;;23.86;62.72;100589.41;7395880;19;1528;-46
2023/07/06 03:45:18;;;;;;;;;;;;;;;24.07;62.05;100581.56;7395808;19;1328;-45
2023/07/06 03:47:50;;;;;;;;;;;;;;;23.97;62.52;100587.22;7395780;19;1535;-45
2023/07/06 03:50:20;;;;;;;;;;;;;;;23.97;62.73;100587.22;7396081;19;1868;-46
2023/07/06 03:52:49;;;;;;;;;;;;;;;23.91;62.87;100571.66;7396924;19;1032;-47
2023/07/06 03:55:19;;;;;;;;;;;;;;;23.80;63.20;100594.47;7395785;19;1286;-45
2023/07/06 03:57:49;;;;;;;;;;;;;;;23.72;63.46;100589.06;7393690;19;1903;-47
2023/07/06 04:00:20;;;;;;;;;;;;;;;23.69;63.68;100600.19;7396337;19;1606;-48
2023/07/06 04:02:51;;;;;;;;;;;;;;;23.62;64.00;100583.84;7396028;19;1250;-48
2023/07/06 04:05:24;;;;;;;;;;;;;;;23.62;63.88;100581.16;7395989;19;1559;-47
2023/07/06 04:07:53;;;;;;;;;;;;;;;23.74;63.90;100603.25;7395324;19;1227;-47
2023/07/06 04:10:22;;;;;;;;;;;;;;;23.76;63.95;100585.00;7395418;19;1839;-46
2023/07/06 04:12:51;;;;;;;;;;;;;;;23.87;63.99;100600.03;7396050;19;1645;-47
2023/07/06 04:15:21;;;;;;;;;;;;;;;23.97;63.60;100595.31;7395683;19;1429;-47
2023/07/06 04:17:52;;;;;;;;;;;;;;;24.10;63.32;100588.50;7395018;19;1251;-48
2023/07/06 04:20:21;;;;;;;;;;;;;;;24.10;63.18;100586.66;7395639;19;1273;-49
2023/07/06 04:22:51;;;;;;;;;;;;;;;24.16;63.22;100588.66;7396891;19;1104;-49
2023/07/06 04:25:21;;;;;;;;;;;;;;;24.19;63.05;100599.13;7331199;19;13094;-48
2023/07/06 04:27:49;;;;;;;;;;;;;;;24.18;63.56;100592.03;7394834;19;1569;-47
2023/07/06 04:30:19;;;;;;;;;;;;;;;24.17;63.74;100595.75;7394833;19;1853;-47
2023/07/06 04:32:48;;;;;;;;;;;;;;;24.06;63.47;100590.72;7395253;19;1214;-47
2023/07/06 04:35:21;;;;;;;;;;;;;;;24.05;63.63;100591.72;7393122;19;1101;-47
2023/07/06 04:37:50;;;;;;;;;;;;;;;24.06;63.50;100585.31;7392948;19;1269;-47
2023/07/06 04:40:20;;;;;;;;;;;;;;;24.26;63.11;100606.53;7393463;19;1563;-46
2023/07/06 04:42:50;;;;;;;;;;;;;;;24.22;63.22;100579.84;7393353;19;1365;-46
2023/07/06 04:45:19;;;;;;;;;;;;;;;24.17;63.11;100582.25;7392702;19;1547;-47
2023/07/06 04:47:48;;;;;;;;;;;;;;;24.19;62.97;100590.16;7392911;19;1408;-47
2023/07/06 04:50:22;;;;;;;;;;;;;;;24.19;62.83;100587.44;7394756;19;1857;-47
2023/07/06 04:52:51;;;;;;;;;;;;;;;24.24;62.89;100584.25;7395433;19;1128;-46
2023/07/06 04:55:23;;;;;;;;;;;;;;;24.28;62.86;100585.59;7399096;19;1602;-47
2023/07/06 04:57:54;;;;;;;;;;;;;;;24.27;62.93;100582.00;7399419;19;1484;-47
2023/07/06 05:00:24;;;;;;;;;;;;;;;24.30;62.63;100581.69;7400009;19;1531;-47
2023/07/06 05:02:53;;;;;;;;;;;;;;;24.34;63.14;100598.38;7399995;19;1475;-48
2023/07/06 05:05:25;;;;;;;;;;;;;;;24.48;63.29;100581.44;7396690;19;1472;-46
2023/07/06 05:07:53;;;;;;;;;;;;;;;24.58;62.62;100598.31;7399418;19;1211;-46
2023/07/06 05:10:22;;;;;;;;;;;;;;;24.49;63.02;100585.84;7399247;19;1847;-46
2023/07/06 05:12:51;;;;;;;;;;;;;;;24.47;62.61;100574.34;7398737;19;1238;-47
2023/07/06 05:15:20;;;;;;;;;;;;;;;24.57;62.76;100595.78;7399069;19;1516;-46
2023/07/06 05:17:48;;;;;;;;;;;;;;;24.60;62.13;100588.16;7398648;19;1503;-47
2023/07/06 05:20:16;;;;;;;;;;;;;;;24.65;62.22;100584.06;7398656;19;1206;-47
2023/07/06 05:22:48;;;;;;;;;;;;;;;24.69;61.92;100588.09;7396701;19;1503;-47
2023/07/06 05:25:17;;;;;;;;;;;;;;;24.79;61.93;100586.03;7389641;19;1821;-47
2023/07/06 05:27:46;;;;;;;;;;;;;;;24.57;62.94;100588.53;7391364;19;1816;-47
2023/07/06 05:30:15;;;;;;;;;;;;;;;24.45;63.06;100586.34;7392122;19;1552;-47
2023/07/06 05:32:43;;;;;;;;;;;;;;;24.43;63.19;100591.91;7391276;19;1841;-46
2023/07/06 05:35:13;;;;;;;;;;;;;;;24.46;63.31;100572.66;7391429;19;1271;-46
2023/07/06 05:37:41;;;;;;;;;;;;;;;24.47;63.00;100582.47;7394216;19;1505;-46
2023/07/06 05:40:13;;;;;;;;;;;;;;;24.46;63.42;100575.34;7394096;19;1639;-47
2023/07/06 05:42:41;;;;;;;;;;;;;;;24.50;63.41;100587.53;7395906;19;1620;-47
2023/07/06 05:45:10;;;;;;;;;;;;;;;24.49;63.23;100588.53;7399791;19;1563;-47
2023/07/06 05:47:38;;;;;;;;;;;;;;;24.51;63.07;100582.97;7398466;19;1489;-47
2023/07/06 05:50:08;;;;;;;;;;;;;;;24.52;63.08;100595.47;7399988;19;1026;-47
2023/07/06 05:52:36;;;;;;;;;;;;;;;24.58;63.09;100601.00;7396867;19;1868;-47
2023/07/06 05:55:04;;;;;;;;;;;;;;;24.62;62.89;100585.28;7398020;19;1777;-47
2023/07/06 05:57:35;;;;;;;;;;;;;;;24.63;62.81;100595.09;7396932;19;1259;-47
2023/07/06 06:00:09;;;;;;;;;;;;;;;24.71;62.75;100599.59;7398575;19;1563;-46
2023/07/06 06:02:38;;;;;;;;;;;;;;;24.75;62.88;100590.09;7398108;19;1564;-46
2023/07/06 06:05:07;;;;;;;;;;;;;;;24.83;62.29;100591.91;7398947;19;1623;-47
2023/07/06 06:07:35;;;;;;;;;;;;;;;24.82;62.68;100588.38;7397920;19;1802;-47
2023/07/06 06:10:04;;;;;;;;;;;;;;;24.83;62.60;100595.47;7399158;19;1615;-47
2023/07/06 06:12:36;;;;;;;;;;;;;;;24.75;63.00;100599.06;7397359;19;1855;-47
2023/07/06 06:15:07;;;;;;;;;;;;;;;24.74;62.95;100583.03;7398426;19;1558;-47
2023/07/06 06:17:36;;;;;;;;;;;;;;;24.71;63.15;100584.22;7399010;19;1036;-47
2023/07/06 06:20:06;;;;;;;;;;;;;;;24.71;63.04;100592.34;7398772;19;1147;-47
2023/07/06 06:22:34;;;;;;;;;;;;;;;24.80;62.96;100590.41;7398198;19;1524;-47
2023/07/06 06:25:03;;;;;;;;;;;;;;;24.81;63.10;100594.81;7397851;19;1219;-46
2023/07/06 06:27:32;;;;;;;;;;;;;;;24.78;62.98;100589.75;7398720;19;1148;-46
2023/07/06 06:30:05;;;;;;;;;;;;;;;24.78;63.03;100605.97;7397413;19;1631;-48
2023/07/06 06:32:35;;;;;;;;;;;;;;;24.77;63.70;100594.31;7390381;19;1863;-50
2023/07/06 06:35:03;;;;;;;;;;;;;;;24.96;63.22;100582.19;7393939;19;2053;-49
2023/07/06 06:37:31;;;;;;;;;;;;;;;25.14;62.80;100587.31;7395968;19;1155;-50
2023/07/06 06:40:00;;;;;;;;;;;;;;;25.31;62.69;100582.66;7395813;19;1489;-49
2023/07/06 06:42:28;;;;;;;;;;;;;;;25.23;62.94;100568.31;7397124;19;1590;-49
2023/07/06 06:44:58;;;;;;;;;;;;;;;25.26;62.73;100587.75;7396482;19;1501;-49
2023/07/06 06:47:29;;;;;;;;;;;;;;;25.23;62.71;100566.47;7398061;19;1473;-49
2023/07/06 06:49:57;;;;;;;;;;;;;;;25.12;62.99;100573.13;7397824;19;1330;-49
2023/07/06 06:52:26;;;;;;;;;;;;;;;25.25;63.42;100577.09;7393470;19;1845;-49
2023/07/06 06:54:54;;;;;;;;;;;;;;;25.36;62.89;100561.28;7397135;19;1590;-49
2023/07/06 06:57:23;;;;;;;;;;;;;;;25.35;63.03;100570.44;7395846;19;1965;-49
2023/07/06 06:59:53;;;;;;;;;;;;;;;25.37;63.16;100575.69;7395909;19;1915;-50
2023/07/06 07:02:22;;;;;;;;;;;;;;;25.45;62.84;100563.94;7396210;19;1504;-46
2023/07/06 07:04:58;;;;;;;;;;;;;;;25.39;63.27;100571.75;7394825;19;1455;-47
2023/07/06 07:07:27;;;;;;;;;;;;;;;25.25;63.29;100566.28;7393995;19;1475;-46
2023/07/06 07:09:55;;;;;;;;;;;;;;;25.34;63.26;100576.84;7395626;19;1324;-47
2023/07/06 07:12:25;;;;;;;;;;;;;;;25.63;62.48;100586.09;7395457;19;1845;-47
2023/07/06 07:14:53;;;;;;;;;;;;;;;25.46;63.31;100576.44;7396763;19;1413;-47
2023/07/06 07:17:21;;;;;;;;;;;;;;;25.23;64.27;100577.31;7395187;19;1464;-48
2023/07/06 07:19:51;;;;;;;;;;;;;;;25.12;65.36;100580.41;7395637;19;1445;-47
2023/07/06 07:22:22;;;;;;;;;;;;;;;25.07;66.35;100566.56;7396738;19;1555;-47
2023/07/06 07:24:50;;;;;;;;;;;;;;;25.11;66.07;100574.16;7396529;19;1417;-46
2023/07/06 07:27:19;;;;;;;;;;;;;;;25.13;66.72;100573.97;7396689;19;1583;-47
2023/07/06 07:29:47;;;;;;;;;;;;;;;24.96;66.83;100582.19;7393014;19;1504;-47
2023/07/06 07:32:15;;;;;;;;;;;;;;;25.00;66.82;100577.28;7390879;19;1846;-47
2023/07/06 07:34:44;;;;;;;;;;;;;;;25.07;66.67;100582.78;7392309;19;1472;-46
2023/07/06 07:37:14;;;;;;;;;;;;;;;25.00;66.63;100575.41;7390735;19;1547;-46
2023/07/06 07:39:45;;;;;;;;;;;;;;;25.04;66.51;100580.47;7392567;19;1504;-46
2023/07/06 07:42:14;;;;;;;;;;;;;;;25.01;66.62;100587.09;7395093;19;1254;-46
2023/07/06 07:44:44;;;;;;;;;;;;;;;24.99;66.81;100573.72;7395644;19;1742;-47
2023/07/06 07:47:12;;;;;;;;;;;;;;;25.01;66.87;100574.38;7395409;19;1424;-46
2023/07/06 07:49:40;;;;;;;;;;;;;;;25.01;66.98;100570.84;7395348;19;1191;-46
2023/07/06 07:52:09;;;;;;;;;;;;;;;25.04;66.94;100562.34;7394512;19;1863;-47
2023/07/06 07:54:38;;;;;;;;;;;;;;;25.18;66.53;100580.50;7395116;19;1465;-47
2023/07/06 07:57:09;;;;;;;;;;;;;;;25.20;66.04;100577.63;7391944;19;1226;-47
2023/07/06 07:59:38;;;;;;;;;;;;;;;25.29;66.11;100576.59;7395525;19;1393;-46
2023/07/06 08:02:07;;;;;;;;;;;;;;;25.25;65.98;100582.50;7395623;19;1615;-47
2023/07/06 08:04:35;;;;;;;;;;;;;;;25.29;66.08;100579.28;7394743;19;1235;-47
2023/07/06 08:07:05;;;;;;;;;;;;;;;25.25;66.13;100580.69;7395675;19;1520;-47
2023/07/06 08:09:34;;;;;;;;;;;;;;;25.20;65.98;100572.22;7396952;19;1299;-47
2023/07/06 08:12:03;;;;;;;;;;;;;;;25.22;65.89;100575.59;7396165;19;2060;-46
2023/07/06 08:14:41;;;;;;;;;;;;;;;25.21;66.10;100565.78;7395994;19;1959;-46
2023/07/06 08:17:10;;;;;;;;;;;;;;;25.15;66.20;100564.66;7395870;19;1875;-47
2023/07/06 08:19:40;;;;;;;;;;;;;;;25.13;66.56;100563.16;7395103;19;1845;-46
2023/07/06 08:22:09;;;;;;;;;;;;;;;25.00;66.73;100567.28;7394925;19;1403;-47
2023/07/06 08:24:37;;;;;;;;;;;;;;;24.99;66.80;100572.91;7394300;19;1322;-47
2023/07/06 08:27:06;;;;;;;;;;;;;;;25.10;66.58;100560.81;7394978;19;1603;-47
2023/07/06 08:29:34;;;;;;;;;;;;;;;25.03;66.32;100549.88;7395884;19;1445;-47
2023/07/06 08:32:06;;;;;;;;;;;;;;;25.25;65.71;100555.44;7400205;19;1862;-47
2023/07/06 08:34:35;;;;;;;;;;;;;;;25.21;66.30;100546.84;6876943;19;10000295;-47
2023/07/06 08:37:04;;;;;;;;;;;;;;;25.14;66.07;100549.41;7391967;19;1538;-47
2023/07/06 08:39:33;;;;;;;;;;;;;;;25.20;66.24;100555.97;7394098;19;1638;-47
2023/07/06 08:42:02;;;;;;;;;;;;;;;25.27;65.69;100551.56;7395903;19;1575;-47
2023/07/06 08:44:31;;;;;;;;;;;;;;;25.25;65.92;100555.44;7394347;19;1560;-47
2023/07/06 08:46:59;;;;;;;;;;;;;;;25.18;65.80;100558.84;7394592;19;1393;-47
2023/07/06 08:49:32;;;;;;;;;;;;;;;25.18;66.21;100541.78;7394699;19;1539;-47
2023/07/06 08:52:01;;;;;;;;;;;;;;;25.22;66.10;100545.00;7393515;19;1874;-47
2023/07/06 08:54:30;;;;;;;;;;;;;;;25.17;65.97;100550.94;7396060;19;1694;-47
2023/07/06 08:56:59;;;;;;;;;;;;;;;25.17;65.91;100549.06;7392385;19;1452;-47
2023/07/06 08:59:38;;;;;;;;;;;;;;;25.15;65.87;100537.59;7395573;19;1504;-47
2023/07/06 09:02:18;;;;;;;;;;;;;;;25.18;66.27;100552.63;7394938;19;1413;-47
2023/07/06 09:04:50;;;;;;;;;;;;;;;25.15;65.99;100547.56;7395243;19;1750;-47
2023/07/06 09:07:19;;;;;;;;;;;;;;;25.18;65.94;100539.09;7394554;19;1374;-47
2023/07/06 09:09:48;;;;;;;;;;;;;;;25.12;66.29;100537.09;7392656;19;1413;-48
2023/07/06 09:12:20;;;;;;;;;;;;;;;25.13;66.43;100542.34;7393680;19;1851;-47
2023/07/06 09:14:52;;;;;;;;;;;;;;;25.14;66.01;100545.88;7394831;19;1583;-48
2023/07/06 09:17:20;;;;;;;;;;;;;;;25.15;66.29;100553.00;7394409;19;1512;-48
2023/07/06 09:19:52;;;;;;;;;;;;;;;25.15;66.32;100548.41;7394801;19;1601;-47
2023/07/06 09:22:22;;;;;;;;;;;;;;;25.14;66.17;100552.13;7394194;19;1635;-48
2023/07/06 09:24:51;;;;;;;;;;;;;;;25.11;65.97;100543.53;7395384;19;1844;-47
2023/07/06 09:27:20;;;;;;;;;;;;;;;25.19;66.02;100540.78;7394344;19;1302;-48
2023/07/06 09:29:59;;;;;;;;;;;;;;;25.16;66.41;100536.56;7399391;19;1820;-46
2023/07/06 09:32:29;;;;;;;;;;;;;;;25.16;66.09;100533.00;7396042;19;1869;-47
2023/07/06 09:35:03;;;;;;;;;;;;;;;25.17;66.24;100526.59;7399123;19;1480;-47
2023/07/06 09:37:32;;;;;;;;;;;;;;;25.15;66.27;100537.59;7400978;19;1632;-48
2023/07/06 09:40:01;;;;;;;;;;;;;;;25.14;66.18;100532.34;7398309;19;1349;-47
2023/07/06 09:42:31;;;;;;;;;;;;;;;25.17;66.15;100534.72;7399472;19;1671;-48
2023/07/06 09:45:00;;;;;;;;;;;;;;;25.15;66.38;100520.53;7400846;19;1238;-48
2023/07/06 09:47:30;;;;;;;;;;;;;;;25.14;66.33;100521.53;7399560;19;1826;-48
2023/07/06 09:50:04;;;;;;;;;;;;;;;25.14;66.34;100529.66;7401385;19;1354;-47
2023/07/06 09:52:33;;;;;;;;;;;;;;;25.13;66.16;100517.16;7399741;19;1862;-48
2023/07/06 09:55:05;;;;;;;;;;;;;;;25.13;66.54;100498.22;7400549;19;1757;-48
2023/07/06 09:57:36;;;;;;;;;;;;;;;25.15;66.45;100507.81;7397775;19;1310;-48
2023/07/06 10:00:05;;;;;;;;;;;;;;;25.13;66.36;100518.00;7399542;19;1254;-48
2023/07/06 10:02:36;;;;;;;;;;;;;;;25.24;65.98;100514.03;7398710;19;1408;-48
2023/07/06 10:05:17;;;;;;;;;;;;;;;25.25;65.96;100498.63;7400849;19;1405;-47
2023/07/06 10:07:52;;;;;;;;;;;;;;;25.38;66.02;100507.78;7399864;19;1421;-46
2023/07/06 10:10:24;;;;;;;;;;;;;;;25.27;65.91;100496.56;7399159;19;1214;-47
2023/07/06 10:12:58;;;;;;;;;;;;;;;25.25;66.11;100491.38;7398344;19;1851;-47
2023/07/06 10:15:31;;;;;;;;;;;;;;;25.16;66.20;100501.38;7399388;19;1485;-46
2023/07/06 10:18:03;;;;;;;;;;;;;;;25.12;66.24;100499.22;7398858;19;1745;-46
2023/07/06 10:20:37;;;;;;;;;;;;;;;25.11;66.37;100489.41;7399667;19;1460;-46
2023/07/06 10:23:17;;;;;;;;;;;;;;;25.13;66.56;100484.69;7399719;19;1736;-47
2023/07/06 10:25:50;;;;;;;;;;;;;;;25.07;66.62;100485.38;7400490;19;1828;-47
2023/07/06 10:28:22;;;;;;;;;;;;;;;25.07;66.70;100486.25;7399933;19;1496;-47
2023/07/06 10:30:52;;;;;;;;;;;;;;;25.07;66.36;100469.16;7398947;19;1734;-47
2023/07/06 10:33:23;;;;;;;;;;;;;;;25.07;66.47;100490.81;7398328;19;1853;-47
2023/07/06 10:35:55;;;;;;;;;;;;;;;25.04;66.71;100472.25;7399918;19;1721;-47
2023/07/06 10:38:23;;;;;;;;;;;;;;;25.07;66.67;100482.69;7399018;19;1077;-47
2023/07/06 10:41:14;;;;;;;;;;;;;;;25.05;66.59;100476.63;7399291;19;1805;-48
2023/07/06 10:43:43;;;;;;;;;;;;;;;25.01;67.03;100471.59;7395525;19;1516;-48
2023/07/06 10:46:26;;;;;;;;;;;;;;;25.10;66.77;100479.63;7397310;19;1527;-47
2023/07/06 10:48:57;;;;;;;;;;;;;;;25.10;66.75;100474.22;7397844;19;1778;-47
2023/07/06 10:51:29;;;;;;;;;;;;;;;25.44;65.56;100472.91;7396196;19;1531;-47
2023/07/06 10:54:11;;;;;;;;;;;;;;;25.18;66.36;100466.03;7394263;19;1844;-47
2023/07/06 10:56:45;;;;;;;;;;;;;;;25.34;66.00;100460.47;7395878;19;1758;-47
2023/07/06 10:59:18;;;;;;;;;;;;;;;25.53;65.44;100459.09;7396861;19;1461;-48
2023/07/06 11:01:47;;;;;;;;;;;;;;;25.68;65.07;100466.38;7397902;19;1503;-47
2023/07/06 11:04:31;;;;;;;;;;;;;;;25.62;65.42;100467.97;7397897;19;1580;-47
2023/07/06 11:07:02;;;;;;;;;;;;;;;25.75;65.19;100446.47;7397112;19;1487;-47
2023/07/06 11:09:30;;;;;;;;;;;;;;;25.30;66.70;100447.50;7396082;19;1464;-47
2023/07/06 11:12:24;;;;;;;;;;;;;;;25.32;67.02;100456.28;7396193;19;1167;-46
2023/07/06 11:15:08;;;;;;;;;;;;;;;25.33;67.38;100444.44;7397963;19;1167;-48
2023/07/06 11:17:38;;;;;;;;;;;;;;;25.56;66.34;100445.16;7397721;19;1342;-47
2023/07/06 11:20:11;;;;;;;;;;;;;;;25.54;66.41;100449.09;7396651;19;1326;-47
2023/07/06 11:22:44;;;;;;;;;;;;;;;25.55;66.10;100439.97;7397151;19;1117;-46
2023/07/06 11:25:14;;;;;;;;;;;;;;;25.57;65.80;100449.56;7397155;19;1623;-48
2023/07/06 11:27:45;;;;;;;;;;;;;;;25.52;65.89;100443.03;7398300;19;1753;-47
2023/07/06 11:30:17;;;;;;;;;;;;;;;25.53;65.63;100425.78;7397327;19;1516;-47
2023/07/06 11:32:52;;;;;;;;;;;;;;;25.53;65.64;100432.03;7398370;19;1859;-47
2023/07/06 11:35:32;;;;;;;;;;;;;;;25.53;66.02;100436.59;7396428;19;1536;-46
2023/07/06 11:38:12;;;;;;;;;;;;;;;25.55;65.79;100427.25;7397246;19;1287;-46
2023/07/06 11:40:44;;;;;;;;;;;;;;;25.53;65.59;100420.34;7397452;19;1681;-47
2023/07/06 11:43:22;;;;;;;;;;;;;;;25.44;65.99;100421.47;7397272;19;1487;-47
2023/07/06 11:45:54;;;;;;;;;;;;;;;25.46;65.95;100432.94;7396791;19;1435;-46
2023/07/06 11:48:29;;;;;;;;;;;;;;;25.47;65.96;100426.53;7396205;19;1504;-46
2023/07/06 11:50:57;;;;;;;;;;;;;;;25.23;66.61;100414.06;7396432;19;1678;-46
2023/07/06 11:53:42;;;;;;;;;;;;;;;25.35;66.28;100421.56;7395395;19;1860;-46
2023/07/06 11:56:19;;;;;;;;;;;;;;;25.50;66.03;100410.72;7395667;19;1816;-45
2023/07/06 11:58:54;;;;;;;;;;;;;;;25.45;66.43;100417.75;7394577;19;1525;-45
2023/07/06 12:01:32;;;;;;;;;;;;;;;25.55;65.94;100415.59;7394778;19;1401;-45
2023/07/06 12:04:02;;;;;;;;;;;;;;;25.39;66.69;100408.50;7398473;19;1499;-45
2023/07/06 12:06:30;;;;;;;;;;;;;;;25.39;66.61;100403.94;7403318;19;1483;-45
2023/07/06 12:09:06;;;;;;;;;;;;;;;25.07;68.61;100420.47;7404216;19;1398;-45
2023/07/06 12:11:35;;;;;;;;;;;;;;;24.49;67.71;100402.03;7404479;19;1470;-45
2023/07/06 12:14:05;;;;;;;;;;;;;;;24.06;65.52;100401.63;7401996;19;2077;-45
2023/07/06 12:16:35;;;;;;;;;;;;;;;23.85;64.26;100409.50;7403678;19;1543;-45
2023/07/06 12:19:05;;;;;;;;;;;;;;;23.62;63.91;100405.69;7403706;19;1951;-45
2023/07/06 12:21:35;;;;;;;;;;;;;;;23.45;63.37;100397.81;7402833;19;1579;-45
2023/07/06 12:24:07;;;;;;;;;;;;;;;23.45;63.08;100404.06;7403011;19;1393;-45
2023/07/06 12:26:36;;;;;;;;;;;;;;;23.50;62.92;100371.16;7402722;19;1551;-45
2023/07/06 12:29:04;;;;;;;;;;;;;;;23.65;63.13;100428.78;7401234;19;1386;-45
2023/07/06 12:31:33;;;;;;;;;;;;;;;23.82;62.49;100384.53;7402933;19;1429;-45
2023/07/06 12:34:02;;;;;;;;;;;;;;;23.80;63.04;100375.78;7398981;19;1885;-45
2023/07/06 12:36:31;;;;;;;;;;;;;;;23.91;63.11;100369.13;7402506;19;1521;-45
2023/07/06 12:39:02;;;;;;;;;;;;;;;23.88;63.27;100374.88;7403087;19;1480;-45
2023/07/06 12:41:37;;;;;;;;;;;;;;;23.99;62.89;100379.03;7402623;19;1574;-45
2023/07/06 12:44:07;;;;;;;;;;;;;;;23.91;63.07;100357.47;7401115;19;1614;-45
2023/07/06 12:46:35;;;;;;;;;;;;;;;23.88;63.15;100368.66;7400928;19;1393;-45
2023/07/06 12:49:06;;;;;;;;;;;;;;;23.77;63.65;100354.50;7402609;19;1254;-45
2023/07/06 12:51:38;;;;;;;;;;;;;;;23.59;64.32;100370.09;7403333;19;1824;-45
2023/07/06 12:54:06;;;;;;;;;;;;;;;23.59;64.46;100372.78;7400731;19;1857;-45
2023/07/06 12:56:41;;;;;;;;;;;;;;;23.60;64.70;100374.50;7400609;19;1934;-45
2023/07/06 12:59:09;;;;;;;;;;;;;;;23.59;64.97;100370.09;7400544;19;1604;-45
2023/07/06 13:01:38;;;;;;;;;;;;;;;23.81;63.84;100374.78;7401508;19;1196;-45
2023/07/06 13:04:07;;;;;;;;;;;;;;;23.87;63.93;100365.09;7399983;19;1329;-45